Terminal Aerodrome Forecast
Issued by NWS

Home | Current Version | Previous Version | Text Only | Print | Product List | Glossary On
Versions: 1 2 3 4 5 6 7 8 9 10 11 12 13 14 15 16 17 18 19 20 21 22 23 24
000
FTAK31 PANC 171740
TAFAEN
TAF
PAEN 171740Z 1718/1818 02010KT P6SM -SHRA OVC060
     FM172000 02015KT P6SM -RA OVC050
     FM180000 35008KT P6SM SCT050 BKN080
     FM181200 36008KT 6SM -RA OVC050=

USA.gov is the U.S. government's official web portal to all federal, state and local government web resources and services.